Latest Weather Observations for Hobart Airport

IDT60901

Issued at 7:45 pm EST Wednesday 23 July 2014 (issued every 10 minutes, with the page automatically refreshed every 10 minutes)

About weather observations | Map of Hobart area stations | Latest observations for Hobart area | Other Formats
Station Details ID: 094008 Name: HOBART AIRPORT Lat: -42.83 Lon: 147.50 Height: 4.0 m
Data from the previous 72 hours. | See also: Recent months at Hobart Airport
Date/Time
EST
Tmp

°C
App
Tmp
°C
Dew
Point
°C
Rel
Hum
%
Delta-T

°C
Wind Press
QNH
hPa
Press
MSL
hPa
Rain
since
9 am
mm
Dir
 
Spd
km/h
Gust
km/h
Spd
kts
Gust
kts
23/07:30pm 4.8 2.1 3.8 93 0.4 WNW 7 7 4 4 1021.6 - 0.0
23/07:00pm 4.6 1.9 3.9 95 0.3 NW 7 9 4 5 1021.4 1021.5 0.0
23/06:30pm 5.9 4.6 4.3 89 0.7 CALM 0 0 0 0 1021.2 - 0.0
23/06:00pm 7.0 5.9 5.2 88 0.8 CALM 0 0 0 0 1021.3 1021.4 0.0
23/05:30pm 8.4 6.3 6.0 85 1.1 S 6 7 3 4 1021.3 - 0.0
23/05:00pm 9.4 7.1 5.9 79 1.6 S 7 7 4 4 1021.2 1021.3 0.0
23/04:30pm 10.3 7.7 6.2 76 1.9 S 9 9 5 5 1021.1 - 0.0
23/04:00pm 11.7 8.6 5.4 65 2.9 SSE 11 13 6 7 1021.1 1021.2 0.0
23/03:30pm 12.2 9.1 5.5 63 3.1 SE 11 13 6 7 1021.0 - 0.0
23/03:00pm 12.5 9.1 5.9 64 3.1 SSE 13 13 7 7 1020.9 1021.0 0.0
23/02:30pm 14.2 11.8 2.1 44 5.3 WNW 4 7 2 4 1021.0 - 0.0
23/02:00pm 14.2 11.6 4.4 51 4.5 NNW 7 9 4 5 1021.1 1021.2 0.0
23/01:30pm 13.6 11.0 4.4 53 4.2 NNW 7 11 4 6 1021.5 - 0.0
23/01:00pm 13.2 10.0 5.0 57 3.8 NW 11 15 6 8 1022.1 1022.2 0.0
23/12:30pm 12.8 9.7 5.5 61 3.4 NNW 11 15 6 8 1022.5 - 0.0
23/12:00pm 12.6 9.2 5.7 63 3.2 NW 13 17 7 9 1022.9 1023.0 0.0
23/11:30am 11.6 8.1 5.5 66 2.8 NW 13 17 7 9 1023.4 - 0.0
23/11:00am 11.2 7.8 5.8 69 2.5 NW 13 17 7 9 1024.0 1024.1 0.0
23/10:30am 10.1 7.0 5.5 73 2.1 NNW 11 17 6 9 1024.2 - 0.0
23/10:00am 9.4 6.2 4.9 73 2.0 NW 11 13 6 7 1024.4 1024.5 0.0
23/09:30am 8.0 5.1 4.6 79 1.5 NW 9 13 5 7 1024.4 - 0.0
23/09:00am 7.2 3.5 4.4 82 1.2 NW 13 17 7 9 1024.3 1024.4 0.0
23/08:30am 6.4 2.7 4.3 86 0.9 NW 13 15 7 8 1024.2 - 0.0
23/08:00am 5.4 2.3 3.5 87 0.8 NW 9 11 5 6 1024.3 1024.4 0.0
23/07:30am 5.0 2.3 3.6 91 0.6 NW 7 9 4 5 1024.2 - 0.0
23/07:00am 5.8 3.3 3.9 88 0.8 NW 6 9 3 5 1024.1 1024.2 0.0
23/06:30am 6.0 3.6 4.1 88 0.8 NW 6 7 3 4 1023.9 - 0.0
23/06:00am 6.2 2.8 4.1 86 0.9 NW 11 13 6 7 1023.8 1023.9 0.0
23/05:30am 6.1 3.6 4.0 86 0.9 NNW 6 9 3 5 1023.7 - 0.0
23/05:00am 6.5 3.9 4.2 85 1.0 WNW 7 9 4 5 1023.8 1023.9 0.0
23/04:30am 6.9 3.6 4.6 85 1.0 NW 11 13 6 7 1023.9 - 0.0
23/04:00am 7.3 4.9 4.3 81 1.3 NNW 6 11 3 6 1023.8 1023.9 0.0
23/03:30am 7.3 3.6 4.5 82 1.2 NW 13 15 7 8 1023.8 - 0.0
23/03:00am 7.4 4.0 4.1 79 1.4 NW 11 13 6 7 1023.9 1024.0 0.0
23/02:30am 7.3 4.7 4.3 81 1.3 WNW 7 9 4 5 1024.0 - 0.0
23/02:00am 6.9 4.0 4.6 85 1.0 NW 9 11 5 6 1024.1 1024.2 0.0
23/01:30am 7.1 4.1 4.1 81 1.3 NNW 9 9 5 5 1023.9 - 0.0
23/01:00am 7.0 4.0 4.2 82 1.2 NW 9 13 5 7 1024.0 1024.1 0.0
23/12:30am 6.8 3.8 4.2 83 1.1 NW 9 13 5 7 1024.2 - 0.0
23/12:00am 7.0 3.7 4.5 84 1.1 NNW 11 17 6 9 1024.3 1024.4 0.0
 
Date/Time
EST
Tmp

°C
App
Tmp
°C
Dew
Point
°C
Rel
Hum
%
Delta-T

°C
Wind Press
QNH
hPa
Press
MSL
hPa
Rain
since
9 am
mm
Dir
 
Spd
km/h
Gust
km/h
Spd
kts
Gust
kts
22/11:30pm 6.8 4.3 4.0 82 1.2 NNW 6 9 3 5 1024.5 - 0.0
22/11:00pm 6.6 3.2 4.0 83 1.1 NW 11 13 6 7 1024.5 1024.6 0.0
22/10:30pm 6.5 4.1 4.4 86 0.9 NNE 6 9 3 5 1024.6 - 0.0
22/10:00pm 6.5 3.6 4.4 86 0.9 NNW 9 9 5 5 1024.6 1024.7 0.0
22/09:30pm 6.8 4.3 4.5 85 1.0 NNW 7 9 4 5 1024.6 - 0.0
22/09:00pm 6.5 3.9 4.2 85 1.0 N 7 9 4 5 1024.6 1024.7 0.0
22/08:30pm 7.0 4.7 4.7 85 1.0 NNE 6 13 3 7 1024.4 - 0.0
22/08:00pm 7.0 5.0 4.5 84 1.1 N 4 7 2 4 1024.3 1024.4 0.0
22/07:30pm 7.8 5.3 4.6 80 1.4 NNE 7 9 4 5 1024.5 - 0.0
22/07:00pm 9.3 6.7 4.0 69 2.3 NW 7 11 4 6 1024.5 1024.6 0.0
22/06:30pm 8.8 5.6 5.2 78 1.6 NW 11 13 6 7 1024.4 - 0.0
22/06:00pm 9.5 7.5 4.5 71 2.2 NNW 4 7 2 4 1024.4 1024.5 0.0
22/05:30pm 9.7 7.4 4.8 71 2.2 N 6 9 3 5 1024.1 - 0.0
22/05:00pm 10.5 9.3 4.4 66 2.7 CALM 0 0 0 0 1023.9 1024.0 0.0
22/04:30pm 11.3 10.2 4.9 65 2.9 CALM 0 0 0 0 1023.9 - 0.0
22/04:00pm 12.0 9.4 4.2 59 3.5 NNW 7 7 4 4 1023.8 1023.9 0.0
22/03:30pm 12.4 8.9 3.6 55 3.9 NW 11 15 6 8 1023.8 - 0.0
22/03:00pm 12.5 8.6 3.5 54 4.0 NW 13 15 7 8 1023.9 1024.0 0.0
22/02:30pm 12.2 8.3 3.4 55 3.9 NW 13 15 7 8 1023.8 - 0.0
22/02:00pm 11.8 8.0 3.7 57 3.6 NW 13 17 7 9 1023.8 1023.9 0.0
22/01:30pm 11.5 7.7 3.8 59 3.4 NNW 13 17 7 9 1024.0 - 0.0
22/01:00pm 11.1 6.5 3.6 60 3.3 NW 17 24 9 13 1024.4 1024.5 0.0
22/12:30pm 10.2 5.0 3.8 64 2.8 NW 20 28 11 15 1024.8 - 0.0
22/12:00pm 9.3 4.1 3.5 67 2.5 NW 20 24 11 13 1025.4 1025.5 0.0
22/11:30am 8.9 3.8 3.3 68 2.4 NW 19 22 10 12 1025.8 - 0.0
22/11:00am 7.3 2.7 3.8 78 1.5 NW 17 22 9 12 1026.1 1026.2 0.0
22/10:30am 6.4 1.7 3.0 79 1.4 NW 17 20 9 11 1026.3 - 0.0
22/10:00am 5.7 1.3 2.8 81 1.2 NW 15 19 8 10 1026.2 1026.3 0.0
22/09:30am 4.9 0.1 2.7 86 0.9 NW 17 22 9 12 1026.5 - 0.0
22/09:00am 4.4 -0.5 1.9 84 1.0 NW 17 22 9 12 1026.5 1026.6 0.2
22/08:30am 3.6 -0.2 1.8 88 0.7 NW 11 17 6 9 1026.6 - 0.2
22/08:00am 2.8 -1.4 1.5 91 0.5 NW 13 15 7 8 1026.3 1026.4 0.2
22/07:30am 2.4 -2.3 1.1 91 0.5 NW 15 19 8 10 1025.9 - 0.2
22/07:00am 2.6 -2.4 1.3 91 0.5 NW 17 19 9 10 1025.6 1025.7 0.2
22/06:30am 2.6 -2.5 1.0 89 0.6 NW 17 20 9 11 1025.4 - 0.2
22/06:00am 2.4 -2.2 1.3 92 0.4 NW 15 19 8 10 1025.4 1025.5 0.0
22/05:30am 2.4 -2.6 1.3 92 0.4 NW 17 20 9 11 1025.2 - 0.0
22/05:00am 2.4 -1.5 1.3 92 0.4 NW 11 15 6 8 1025.2 1025.3 0.0
22/04:30am 2.5 -1.7 1.5 93 0.4 NW 13 17 7 9 1025.2 - 0.0
22/04:00am 2.8 -1.8 1.5 91 0.5 NW 15 17 8 9 1025.3 1025.4 0.0
22/03:30am 2.8 -1.4 1.8 93 0.4 NW 13 17 7 9 1025.3 - 0.0
22/03:00am 2.8 -1.4 1.5 91 0.5 NW 13 15 7 8 1025.4 1025.5 0.0
22/02:30am 2.8 -1.0 1.5 91 0.5 NNW 11 13 6 7 1025.6 - 0.0
22/02:00am 2.6 -1.6 1.6 93 0.4 NW 13 13 7 7 1025.9 1026.0 0.0
22/01:30am 3.1 -0.3 2.1 93 0.4 NNW 9 11 5 6 1025.8 - 0.0
22/01:00am 3.2 -0.1 2.2 93 0.4 NNW 9 13 5 7 1025.9 1026.0 0.0
22/12:30am 2.8 -1.0 2.0 94 0.3 NW 11 13 6 7 1025.9 - 0.0
22/12:00am 3.0 0.2 2.2 94 0.3 NW 6 9 3 5 1026.0 1026.1 0.0
 
Date/Time
EST
Tmp

°C
App
Tmp
°C
Dew
Point
°C
Rel
Hum
%
Delta-T

°C
Wind Press
QNH
hPa
Press
MSL
hPa
Rain
since
9 am
mm
Dir
 
Spd
km/h
Gust
km/h
Spd
kts
Gust
kts
21/11:30pm 3.0 -0.7 2.2 94 0.3 NW 11 13 6 7 1026.1 - 0.0
21/11:00pm 3.0 -0.7 2.2 94 0.3 NW 11 11 6 6 1026.1 1026.2 0.0
21/10:30pm 3.2 -0.5 2.2 93 0.4 NW 11 13 6 7 1026.1 - 0.0
21/10:00pm 4.0 0.0 2.8 92 0.5 NW 13 17 7 9 1026.1 1026.2 0.0
21/09:30pm 4.2 0.6 3.2 93 0.4 NW 11 13 6 7 1026.2 - 0.0
21/09:00pm 4.3 0.0 3.3 93 0.4 NW 15 17 8 9 1026.2 1026.3 0.0
21/08:30pm 4.6 1.8 3.4 92 0.5 NW 7 9 4 5 1026.2 - 0.0
21/08:00pm 5.1 0.8 3.4 89 0.7 NW 15 17 8 9 1026.2 1026.3 0.0
21/07:30pm 5.5 1.4 4.1 91 0.6 NW 15 15 8 8 1026.2 - 0.0
21/07:00pm 5.9 3.3 4.3 89 0.7 WNW 7 7 4 4 1026.2 1026.3 0.0
21/06:30pm 5.9 3.3 4.3 89 0.7 WNW 7 9 4 5 1026.1 - 0.0
21/06:00pm 5.9 4.6 4.3 89 0.7 CALM 0 0 0 0 1025.9 1026.0 0.0
21/05:30pm 7.8 6.7 5.3 84 1.1 CALM 0 0 0 0 1025.7 - 0.0
21/05:00pm 8.3 5.9 5.4 82 1.3 SE 7 9 4 5 1025.5 1025.6 0.0
21/04:30pm 9.2 7.0 5.2 76 1.8 S 6 9 3 5 1025.4 - 0.0
21/04:00pm 10.4 8.1 4.6 67 2.6 WNW 6 9 3 5 1025.2 1025.3 0.0
21/03:30pm 10.6 7.3 4.8 67 2.6 NW 11 13 6 7 1025.2 - 0.0
21/03:00pm 10.9 7.5 4.1 63 3.0 NW 11 13 6 7 1025.0 1025.1 0.0
21/02:30pm 10.7 7.4 4.4 65 2.8 NW 11 15 6 8 1024.9 - 0.0
21/02:00pm 10.2 6.5 4.3 67 2.6 NW 13 17 7 9 1025.1 1025.2 0.0
21/01:30pm 10.3 5.8 4.4 67 2.6 NW 17 19 9 10 1025.3 - 0.0
21/01:00pm 9.5 5.3 4.0 68 2.4 NW 15 19 8 10 1025.6 1025.7 0.0
21/12:30pm 9.2 5.5 4.4 72 2.1 NW 13 19 7 10 1026.0 - 0.0
21/12:00pm 7.9 3.0 3.9 76 1.7 NW 19 24 10 13 1026.4 1026.5 0.0
21/11:30am 7.4 2.4 3.6 77 1.6 NW 19 24 10 13 1026.7 - 0.0
21/11:00am 6.8 2.3 4.0 82 1.2 NW 17 20 9 11 1027.1 1027.2 0.0
21/10:30am 6.3 1.6 3.4 82 1.2 NW 17 19 9 10 1027.4 - 0.0
21/10:00am 6.0 1.7 3.4 83 1.1 NW 15 19 8 10 1027.4 1027.5 0.0
21/09:30am 4.7 0.7 2.7 87 0.8 NW 13 15 7 8 1027.5 - 0.0
21/09:00am 4.1 0.4 2.3 88 0.7 NNW 11 15 6 8 1027.6 1027.7 0.2
21/08:30am 2.8 -1.0 1.8 93 0.4 NW 11 13 6 7 1027.6 - 0.2
21/08:00am 2.9 -0.5 1.6 91 0.5 NW 9 13 5 7 1027.5 1027.6 0.2
21/07:30am 2.1 -1.8 1.3 94 0.3 NW 11 13 6 7 1027.2 - 0.2
21/07:00am 1.3 -3.0 0.8 96 0.2 NW 13 15 7 8 1027.1 1027.2 0.2
21/06:30am 2.5 -1.7 1.7 94 0.3 NW 13 15 7 8 1026.9 - 0.2
21/06:00am 1.8 -1.4 1.0 94 0.3 WNW 7 9 4 5 1026.7 1026.8 0.2
21/05:30am 2.1 -1.4 1.3 94 0.3 NW 9 15 5 8 1026.6 - 0.2
21/05:00am 2.0 -1.9 0.9 92 0.4 NW 11 11 6 6 1026.3 1026.4 0.2
21/04:30am 1.9 -2.0 1.4 96 0.2 NW 11 15 6 8 1026.4 - 0.2
21/04:00am 1.9 -2.0 1.1 94 0.3 NW 11 15 6 8 1026.4 1026.5 0.2
21/03:30am 2.0 -1.8 1.5 96 0.2 NW 11 13 6 7 1026.5 - 0.2
21/03:00am 2.2 -0.8 1.7 96 0.2 NW 7 11 4 6 1026.7 1026.8 0.2
21/02:30am 2.5 0.0 1.7 94 0.3 NW 4 11 2 6 1026.8 - 0.2
21/02:00am 3.6 0.3 2.3 91 0.5 NW 9 11 5 6 1026.9 1027.0 0.2
21/01:30am 3.8 0.1 2.5 91 0.5 NNW 11 15 6 8 1026.8 - 0.2
21/01:00am 3.7 0.8 2.4 91 0.5 NW 7 11 4 6 1026.7 1026.8 0.2
21/12:30am 3.9 -0.1 2.6 91 0.5 NW 13 17 7 9 1026.9 - 0.2
21/12:00am 4.0 0.0 2.8 92 0.5 NW 13 17 7 9 1027.1 1027.2 0.2
 
Date/Time
EST
Tmp

°C
App
Tmp
°C
Dew
Point
°C
Rel
Hum
%
Delta-T

°C
Wind Press
QNH
hPa
Press
MSL
hPa
Rain
since
9 am
mm
Dir
 
Spd
km/h
Gust
km/h
Spd
kts
Gust
kts
20/11:30pm 4.0 0.4 3.0 93 0.4 NW 11 13 6 7 1027.3 - 0.2
20/11:00pm 4.3 0.0 3.3 93 0.4 NW 15 17 8 9 1027.2 1027.3 0.2
20/10:30pm 4.6 -0.4 3.6 93 0.4 NW 19 22 10 12 1027.1 - 0.2
20/10:00pm 5.0 0.8 3.8 92 0.5 NW 15 19 8 10 1026.9 1027.0 0.2
20/09:30pm 5.3 0.3 3.6 89 0.7 NW 19 20 10 11 1026.8 - 0.2
20/09:00pm 5.3 1.1 3.9 91 0.6 NW 15 17 8 9 1026.8 1026.9 0.2
20/08:30pm 5.9 2.5 4.0 88 0.8 WNW 11 13 6 7 1026.8 - 0.2
20/08:00pm 5.6 3.1 3.9 89 0.7 SSW 6 7 3 4 1026.7 1026.8 0.2

Latest Capital City Observations: Canberra | Sydney | Melbourne | Brisbane | Adelaide | Perth | Hobart | Darwin

Other Formats:

Comma delimited format used in spreadsheet applications
http://www.bom.gov.au/fwo/IDT60901/IDT60901.94975.axf

JavaScript Object Notation format (JSON) in row-major order
http://www.bom.gov.au/fwo/IDT60901/IDT60901.94975.json